Time;durP1;ratioP1;P1;durP2;ratioP2;P2;SDS_P1;SDS_P2;PMS_P1;PMS_P2;Temp;Humidity;BMP_temperature;BMP_pressure;BME280_temperature;BME280_humidity;BME280_pressure;Samples;Min_cycle;Max_cycle;Signal;HPM_P1;HPM_P2
2022/07/08 00:01:25;;;;;;;10.80;7.67;;;;;;;15.92;70.26;99057.61;1362881;85;21103;-71
2022/07/08 00:03:26;;;;;;;;;;;;;;;15.92;70.26;99057.61;1368859;85;21155;-72
2022/07/08 00:05:27;;;;;;;10.20;7.97;;;;;;;15.93;70.59;99058.44;1364743;85;39887;-72
2022/07/08 00:07:28;;;;;;;11.70;7.72;;;;;;;15.93;70.64;99057.11;1364024;85;21218;-71
2022/07/08 00:09:29;;;;;;;;;;;;;;;15.93;70.64;99057.11;1367283;85;21048;-72
2022/07/08 00:11:30;;;;;;;12.50;8.08;;;;;;;15.95;70.75;99063.16;1365720;85;20144;-72
2022/07/08 00:13:31;;;;;;;16.87;7.65;;;;;;;15.90;70.71;99059.50;1362827;85;21094;-72
2022/07/08 00:15:32;;;;;;;11.83;7.87;;;;;;;15.90;70.71;99059.50;1339353;87;21031;-71
2022/07/08 00:17:34;;;;;;;12.88;7.58;;;;;;;15.90;70.61;99058.66;1361804;85;22295;-72
2022/07/08 00:19:35;;;;;;;11.12;7.45;;;;;;;15.94;70.75;99065.47;1365479;85;21049;-72
2022/07/08 00:21:36;;;;;;;9.73;7.50;;;;;;;15.90;70.69;99060.83;1351767;86;21052;-71
2022/07/08 00:23:37;;;;;;;22.00;8.10;;;;;;;15.90;70.69;99060.83;1352616;85;21094;-71
2022/07/08 00:25:38;;;;;;;9.83;7.97;;;;;;;15.93;70.87;99065.92;1351532;86;21021;-72
2022/07/08 00:27:39;;;;;;;8.53;7.67;;;;;;;15.92;70.91;99059.39;1352693;86;21008;-72
2022/07/08 00:29:40;;;;;;;;;;;;;;;15.90;70.97;99053.34;1356538;86;21068;-72
2022/07/08 00:31:41;;;;;;;8.98;7.47;;;;;;;15.91;71.07;99058.55;1353302;86;35562;-71
2022/07/08 00:33:42;;;;;;;8.48;7.70;;;;;;;15.90;71.07;99056.00;1353828;86;21586;-72
2022/07/08 00:35:43;;;;;;;9.83;7.20;;;;;;;15.89;71.04;99056.95;1354859;86;21579;-71
2022/07/08 00:37:44;;;;;;;;;;;;;;;15.86;71.05;99052.70;1353129;86;25232;-71
2022/07/08 00:39:45;;;;;;;10.50;7.65;;;;;;;15.87;71.25;99066.36;1353761;85;20538;-71
2022/07/08 00:41:46;;;;;;;;;;;;;;;15.87;71.26;99055.73;1353778;86;21713;-71
2022/07/08 00:43:47;;;;;;;12.53;7.72;;;;;;;15.89;71.38;99056.95;1352580;86;20135;-72
2022/07/08 00:45:49;;;;;;;9.45;7.75;;;;;;;15.89;71.35;99060.45;1353160;86;21100;-72
2022/07/08 00:47:49;;;;;;;;;;;;;;;15.86;71.34;99050.03;1356642;86;21108;-72
2022/07/08 00:49:50;;;;;;;15.15;7.40;;;;;;;15.90;71.44;99059.50;1351655;86;23113;-72
2022/07/08 00:51:51;;;;;;;;;;;;;;;15.87;71.40;99058.39;1330269;88;21954;-72
2022/07/08 00:53:54;;;;;;;10.35;6.92;;;;;;;15.87;71.50;99058.84;1352533;86;22245;-72
2022/07/08 00:55:55;;;;;;;8.48;7.50;;;;;;;15.83;71.47;99063.55;1352172;86;21100;-72
2022/07/08 00:57:56;;;;;;;9.23;6.85;;;;;;;15.78;71.46;99055.86;1353694;86;21143;-73
2022/07/08 00:59:58;;;;;;;13.22;6.80;;;;;;;15.78;71.46;99055.86;1352657;86;21440;-72
2022/07/08 01:01:59;;;;;;;7.58;6.72;;;;;;;15.75;71.53;99060.03;1329314;88;21114;-73
2022/07/08 01:04:02;;;;;;;9.33;6.90;;;;;;;15.73;71.58;99060.63;1351119;86;59069;-72
2022/07/08 01:06:04;;;;;;;13.78;7.58;;;;;;;15.72;71.65;99061.58;1351254;86;21604;-71
2022/07/08 01:08:06;;;;;;;12.73;6.45;;;;;;;15.71;71.70;99059.88;1352860;86;21099;-70
2022/07/08 01:10:07;;;;;;;;;;;;;;;15.71;71.75;99058.55;1356395;86;45374;-71
2022/07/08 01:12:09;;;;;;;12.13;6.53;;;;;;;15.71;71.86;99055.05;1353529;86;20144;-72
2022/07/08 01:14:10;;;;;;;7.17;6.45;;;;;;;15.70;71.84;99062.18;1349786;86;22271;-72
2022/07/08 01:16:10;;;;;;;;;;;;;;;15.70;71.85;99059.98;1352319;86;21060;-73
2022/07/08 01:18:21;;;;;;;7.03;6.33;;;;;;;15.70;71.97;99060.84;1351042;86;20182;-72
2022/07/08 01:20:22;;;;;;;6.90;6.10;;;;;;;15.68;71.94;99061.42;1342636;86;21286;-72
2022/07/08 01:22:23;;;;;;;;;;;;;;;15.68;71.99;99060.09;1355169;86;38999;-72
2022/07/08 01:24:24;;;;;;;6.60;6.00;;;;;;;15.69;72.10;99055.16;1351716;86;20163;-72
2022/07/08 01:26:25;;;;;;;;;;;;;;;15.68;72.04;99060.09;1354726;86;21016;-72
2022/07/08 01:28:26;;;;;;;24.45;6.50;;;;;;;15.68;72.11;99053.94;1354121;86;20169;-72
2022/07/08 01:30:27;;;;;;;9.08;6.87;;;;;;;15.66;72.06;99058.03;1351587;85;23350;-71
2022/07/08 01:32:35;;;;;;;;;;;;;;;15.61;72.07;99053.00;1354215;86;21064;-71
2022/07/08 01:34:36;;;;;;;7.22;6.58;;;;;;;15.66;72.18;99062.02;1351511;86;32288;-71
2022/07/08 01:36:37;;;;;;;7.05;6.22;;;;;;;15.65;72.19;99061.63;1351471;86;21099;-72
2022/07/08 01:38:38;;;;;;;;;;;;;;;15.66;72.20;99059.36;1354799;86;21025;-71
2022/07/08 01:40:39;;;;;;;7.75;6.97;;;;;;;15.66;72.30;99059.36;1351869;86;21169;-72
2022/07/08 01:42:39;;;;;;;;;;;;;;;15.60;72.26;99058.42;1355127;86;21246;-71
2022/07/08 01:44:40;;;;;;;12.33;6.83;;;;;;;15.64;72.36;99063.42;1352825;86;20147;-71
2022/07/08 01:46:41;;;;;;;;;;;;;;;15.64;72.38;99067.89;1359038;85;21025;-72
2022/07/08 01:48:42;;;;;;;7.77;6.83;;;;;;;15.63;72.47;99062.20;1355550;86;20172;-72
2022/07/08 01:50:43;;;;;;;8.23;7.42;;;;;;;15.61;72.43;99065.45;1353395;86;35169;-72
2022/07/08 01:52:44;;;;;;;;;;;;;;;15.55;72.42;99057.88;1354368;86;21072;-72
2022/07/08 01:54:45;;;;;;;8.23;7.25;;;;;;;15.59;72.57;99069.55;1353246;86;43482;-71
2022/07/08 01:56:46;;;;;;;;;;;;;;;15.58;72.52;99063.02;1356387;86;21029;-71
2022/07/08 01:58:47;;;;;;;14.70;7.45;;;;;;;15.57;72.64;99070.11;1351695;86;20171;-71
2022/07/08 02:00:47;;;;;;;;;;;;;;;15.57;72.62;99067.45;1354510;86;21060;-71
2022/07/08 02:02:49;;;;;;;10.68;7.65;;;;;;;15.56;72.75;99072.41;1354743;86;20123;-71
2022/07/08 02:04:50;;;;;;;14.55;7.75;;;;;;;15.56;72.72;99075.53;1352307;85;21608;-71
2022/07/08 02:06:51;;;;;;;;;;;;;;;15.56;72.72;99075.53;1358459;85;21080;-71
2022/07/08 02:08:53;;;;;;;9.05;7.92;;;;;;;15.54;72.84;99072.14;1364777;85;20461;-71
2022/07/08 02:13:13;;;;;;;13.58;7.65;;;;;;;15.53;72.87;99076.58;1352126;86;21115;-71
2022/07/08 02:15:14;;;;;;;9.50;7.12;;;;;;;15.53;72.91;99074.41;1364491;84;21128;-71
2022/07/08 02:17:16;;;;;;;;;;;;;;;15.54;72.97;99080.11;1355966;86;21013;-72
2022/07/08 02:19:17;;;;;;;9.33;8.30;;;;;;;15.55;73.08;99077.80;1366907;85;21075;-71
2022/07/08 02:21:18;;;;;;;;;;;;;;;15.54;73.04;99084.94;1357085;85;20997;-71
2022/07/08 02:23:19;;;;;;;9.43;8.40;;;;;;;15.55;73.18;99082.66;1352914;86;20795;-72
2022/07/08 02:25:19;;;;;;;;;;;;;;;15.54;73.16;99088.92;1357839;86;27293;-72
2022/07/08 02:27:20;;;;;;;9.50;8.45;;;;;;;15.54;73.26;99082.77;1364559;85;20151;-72
2022/07/08 02:29:21;;;;;;;;;;;;;;;15.54;73.25;99087.59;1353317;86;23846;-72
2022/07/08 02:31:23;;;;;;;12.93;10.03;;;;;;;15.55;73.35;99089.76;1352598;86;20234;-72
2022/07/08 02:33:24;;;;;;;12.50;8.63;;;;;;;15.52;73.28;99088.64;1365987;84;21020;-72
2022/07/08 02:35:24;;;;;;;;;;;;;;;15.52;73.28;99088.64;1367071;85;24173;-72
2022/07/08 02:37:26;;;;;;;8.93;7.72;;;;;;;15.56;73.35;99104.75;1366837;85;20166;-72
2022/07/08 02:39:27;;;;;;;10.93;8.53;;;;;;;15.54;73.28;99098.70;1364962;85;21695;-72
2022/07/08 02:41:28;;;;;;;;;;;;;;;15.50;73.34;99103.36;1368078;85;21042;-72
2022/07/08 02:43:29;;;;;;;9.98;8.98;;;;;;;15.53;73.38;99108.95;1364865;85;26913;-72
2022/07/08 02:45:29;;;;;;;;;;;;;;;15.52;73.42;99110.77;1368913;85;21379;-71
2022/07/08 02:47:30;;;;;;;9.90;8.90;;;;;;;15.53;73.52;99116.92;1366026;85;20481;-72
2022/07/08 02:49:31;;;;;;;;;;;;;;;15.52;73.51;99116.53;1369743;84;21682;-71
2022/07/08 02:51:32;;;;;;;12.75;9.00;;;;;;;15.52;73.58;99116.53;1366879;85;20337;-72
2022/07/08 02:53:33;;;;;;;;;;;;;;;15.50;73.57;99116.16;1356903;86;26591;-72
2022/07/08 02:55:33;;;;;;;10.18;8.95;;;;;;;15.52;73.66;99120.52;1354231;86;20120;-72
2022/07/08 02:57:34;;;;;;;;;;;;;;;15.49;73.65;99119.78;1357021;85;21970;-70
2022/07/08 02:59:35;;;;;;;10.07;8.93;;;;;;;15.48;73.74;99118.08;1354908;86;20331;-71
2022/07/08 03:01:36;;;;;;;;;;;;;;;15.49;73.73;99118.91;1354434;86;21311;-71
2022/07/08 03:03:37;;;;;;;12.93;8.93;;;;;;;15.49;73.86;99118.91;1351794;85;20242;-71
2022/07/08 03:05:37;;;;;;;;;;;;;;;15.48;73.81;99127.38;1351965;86;21067;-72
2022/07/08 03:07:39;;;;;;;13.72;9.25;;;;;;;15.48;73.90;99131.36;1349265;86;20468;-72
2022/07/08 03:09:40;;;;;;;11.25;9.35;;;;;;;15.45;73.86;99127.58;1349934;86;21053;-71
2022/07/08 03:11:40;;;;;;;;;;;;;;;15.44;73.87;99129.02;1352202;86;21044;-72
2022/07/08 03:13:41;;;;;;;15.78;9.28;;;;;;;15.44;73.99;99128.53;1348924;86;20159;-72
2022/07/08 03:15:42;;;;;;;14.47;10.10;;;;;;;15.43;73.98;99136.59;1349286;86;21073;-72
2022/07/08 03:17:43;;;;;;;;;;;;;;;15.43;74.00;99138.77;1351587;86;38941;-72
2022/07/08 03:19:44;;;;;;;13.58;9.33;;;;;;;15.44;74.16;99139.16;1350129;86;20240;-72
2022/07/08 03:21:45;;;;;;;14.73;9.80;;;;;;;15.45;74.14;99135.55;1347434;86;21091;-72
2022/07/08 03:23:46;;;;;;;;;;;;;;;15.46;74.14;99142.55;1351693;87;21048;-71
2022/07/08 03:25:48;;;;;;;21.65;9.85;;;;;;;15.47;74.22;99143.42;1347814;86;20144;-71
2022/07/08 03:27:49;;;;;;;14.45;10.15;;;;;;;15.48;74.26;99147.30;1350945;86;21059;-72
2022/07/08 03:29:50;;;;;;;;;;;;;;;15.48;74.26;99147.30;1352393;87;21045;-72
2022/07/08 03:31:50;;;;;;;15.43;9.90;;;;;;;15.49;74.32;99151.66;1366491;85;20533;-72
2022/07/08 03:33:51;;;;;;;;;;;;;;;15.47;74.28;99146.08;1369110;85;27370;-71
2022/07/08 03:35:52;;;;;;;13.93;10.25;;;;;;;15.47;74.37;99148.73;1366887;85;20442;-73
2022/07/08 03:37:53;;;;;;;14.55;9.60;;;;;;;15.46;74.34;99146.53;1366314;85;21063;-72
2022/07/08 03:39:54;;;;;;;;;;;;;;;15.48;74.35;99153.09;1369725;85;21067;-72
2022/07/08 03:41:55;;;;;;;20.15;10.30;;;;;;;15.48;74.47;99152.61;1365377;85;20131;-72
2022/07/08 03:43:56;;;;;;;;;;;;;;;15.48;74.43;99156.59;1370887;85;21602;-72
2022/07/08 03:45:57;;;;;;;16.15;10.00;;;;;;;15.50;74.54;99160.47;1365880;85;20207;-72
2022/07/08 03:47:57;;;;;;;;;;;;;;;15.50;74.49;99163.97;1368858;84;21091;-72
2022/07/08 03:49:58;;;;;;;18.05;10.00;;;;;;;15.53;74.55;99164.73;1366643;85;20187;-72
2022/07/08 03:51:59;;;;;;;;;;;;;;;15.53;74.50;99168.23;1368023;85;21039;-72
2022/07/08 03:54:00;;;;;;;13.70;9.93;;;;;;;15.55;74.56;99170.78;1366313;85;20154;-72
2022/07/08 03:56:01;;;;;;;;;;;;;;;15.57;74.57;99171.55;1368801;85;21252;-71
2022/07/08 03:58:02;;;;;;;16.07;9.08;;;;;;;15.59;74.62;99172.29;1367494;85;20913;-71
2022/07/08 04:00:05;;;;;;;;;;;;;;;15.60;74.57;99177.53;1368530;85;21253;-71
2022/07/08 04:02:06;;;;;;;21.33;8.55;;;;;;;15.62;74.62;99172.11;1365905;85;45102;-71
2022/07/08 04:04:06;;;;;;;;;;;;;;;15.63;74.54;99179.11;1369400;85;21070;-71
2022/07/08 04:06:07;;;;;;;20.70;9.18;;;;;;;15.64;74.59;99173.69;1367513;85;20166;-71
2022/07/08 04:08:08;;;;;;;;;;;;;;;15.65;74.55;99174.06;1366359;85;122067;-71
2022/07/08 04:10:09;;;;;;;10.00;8.85;;;;;;;15.68;74.55;99178.33;1365480;85;36378;-72
2022/07/08 04:12:10;;;;;;;;;;;;;;;15.69;74.54;99176.06;1368166;85;21163;-71
2022/07/08 04:14:11;;;;;;;12.82;8.83;;;;;;;15.71;74.58;99180.78;1366082;85;20179;-71
2022/07/08 04:16:13;;;;;;;22.30;9.35;;;;;;;15.72;74.54;99182.98;1365808;85;21055;-71
2022/07/08 04:18:14;;;;;;;16.90;9.18;;;;;;;15.74;74.54;99185.92;1364694;85;21071;-71
2022/07/08 04:20:14;;;;;;;;;;;;;;;15.76;74.53;99189.80;1370718;85;21051;-71
2022/07/08 04:22:15;;;;;;;20.95;9.20;;;;;;;15.78;74.56;99190.08;1368246;85;20164;-71
2022/07/08 04:24:16;;;;;;;22.80;8.98;;;;;;;15.81;74.54;99189.89;1368532;85;21181;-71
2022/07/08 04:26:17;;;;;;;;;;;;;;;15.81;74.54;99189.89;1369527;85;21562;-71
2022/07/08 04:28:18;;;;;;;14.80;8.38;;;;;;;15.83;74.58;99193.28;1367244;85;58798;-72
2022/07/08 04:30:19;;;;;;;;;;;;;;;15.85;74.57;99189.69;1370903;85;21167;-71
2022/07/08 04:32:20;;;;;;;14.45;8.55;;;;;;;15.89;74.62;99195.17;1366538;85;20142;-71
2022/07/08 04:34:20;;;;;;;;;;;;;;;15.92;74.58;99198.95;1369600;85;21051;-71
2022/07/08 04:36:22;;;;;;;10.03;7.92;;;;;;;15.94;74.63;99195.23;1366695;85;20195;-72
2022/07/08 04:38:23;;;;;;;14.15;8.38;;;;;;;15.96;74.62;99203.11;1365827;85;23851;-71
2022/07/08 04:40:24;;;;;;;11.48;8.23;;;;;;;15.99;74.57;99200.23;1366842;85;22125;-71
2022/07/08 04:42:25;;;;;;;16.45;8.45;;;;;;;15.97;74.53;99195.52;1365714;85;22672;-71
2022/07/08 04:44:26;;;;;;;;;;;;;;;16.03;74.50;99203.06;1370440;85;26289;-71
2022/07/08 04:46:27;;;;;;;24.82;7.45;;;;;;;16.05;74.53;99209.14;1354528;86;20142;-71
2022/07/08 04:48:29;;;;;;;12.58;7.40;;;;;;;16.06;74.47;99206.87;1352996;86;21077;-71
2022/07/08 04:50:31;;;;;;;17.95;7.40;;;;;;;16.09;74.43;99205.33;1353973;86;22545;-71
2022/07/08 04:52:32;;;;;;;9.35;6.40;;;;;;;16.14;74.46;99208.53;1353237;86;23390;-71
2022/07/08 04:54:33;;;;;;;;;;;;;;;16.17;74.34;99212.31;1355019;86;21062;-71
2022/07/08 04:56:34;;;;;;;;;;;;;;;16.20;74.34;99211.71;1356321;86;20930;-72
2022/07/08 04:58:35;;;;;;;8.73;6.92;;;;;;;16.20;74.32;99205.94;1352783;86;20175;-72
2022/07/08 05:00:35;;;;;;;;;;;;;;;16.24;74.29;99213.20;1355271;86;21332;-72
2022/07/08 05:02:36;;;;;;;11.70;6.70;;;;;;;16.26;74.28;99212.64;1352936;86;20149;-71
2022/07/08 05:04:37;;;;;;;;;;;;;;;16.28;74.24;99206.27;1353288;86;84434;-71
2022/07/08 05:06:38;;;;;;;12.58;8.00;;;;;;;16.31;74.33;99207.38;1350491;86;20450;-71
2022/07/08 05:08:39;;;;;;;;;;;;;;;16.34;74.30;99212.48;1354192;86;21048;-72
2022/07/08 05:10:40;;;;;;;16.42;8.35;;;;;;;16.39;74.37;99212.64;1351871;86;20155;-71
2022/07/08 05:12:41;;;;;;;;;;;;;;;16.41;74.37;99214.25;1353952;86;21072;-71
2022/07/08 05:14:42;;;;;;;11.63;7.22;;;;;;;16.44;74.36;99218.02;1351625;86;20158;-71
2022/07/08 05:16:43;;;;;;;;;;;;;;;16.48;74.38;99226.66;1354014;86;21289;-70
2022/07/08 05:18:44;;;;;;;15.38;7.65;;;;;;;16.51;74.38;99221.95;1354301;86;20148;-70
2022/07/08 05:20:44;;;;;;;;;;;;;;;16.51;74.34;99221.95;1356606;86;21048;-71
2022/07/08 05:22:45;;;;;;;8.15;6.25;;;;;;;16.57;74.37;99226.49;1329827;86;20457;-71
2022/07/08 05:24:46;;;;;;;;;;;;;;;16.60;74.35;99224.94;1356317;86;23866;-71
2022/07/08 05:26:47;;;;;;;17.80;5.92;;;;;;;16.66;74.29;99223.20;1353310;86;20135;-71
2022/07/08 05:28:48;;;;;;;;;;;;;;;16.72;74.20;99221.92;1352513;86;21552;-71
2022/07/08 05:30:50;;;;;;;14.43;6.83;;;;;;;16.77;74.23;99225.95;1351961;86;20179;-71
2022/07/08 05:32:51;;;;;;;28.35;6.90;;;;;;;16.82;74.12;99219.84;1353351;86;21037;-71
2022/07/08 05:34:52;;;;;;;15.63;5.90;;;;;;;16.89;74.04;99223.42;1352856;86;21095;-72
2022/07/08 05:36:53;;;;;;;13.60;6.35;;;;;;;16.96;73.97;99231.34;1351143;86;26805;-71
2022/07/08 05:38:53;;;;;;;;;;;;;;;17.01;73.95;99230.05;1359601;86;21057;-72
2022/07/08 05:40:54;;;;;;;13.83;5.28;;;;;;;17.07;73.79;99227.46;1352119;86;23846;-71
2022/07/08 05:42:55;;;;;;;;;;;;;;;17.11;73.76;99233.41;1354887;86;21167;-72
2022/07/08 05:44:56;;;;;;;13.60;6.08;;;;;;;17.15;73.68;99230.40;1354063;86;20155;-72
2022/07/08 05:46:57;;;;;;;;;;;;;;;17.22;73.66;99231.31;1352171;86;21579;-72
2022/07/08 05:48:58;;;;;;;21.17;5.70;;;;;;;17.28;73.63;99233.52;1352283;86;20190;-72
2022/07/08 05:50:58;;;;;;;;;;;;;;;17.31;73.47;99226.66;1355260;86;65526;-72
2022/07/08 05:53:00;;;;;;;12.88;4.35;;;;;;;17.36;73.33;99229.82;1353758;86;20566;-72
2022/07/08 05:55:02;;;;;;;;;;;;;;;17.43;73.32;99228.90;1353455;85;21302;-73
2022/07/08 05:57:04;;;;;;;5.00;4.17;;;;;;;17.47;73.12;99225.92;1352247;85;20148;-72
2022/07/08 05:59:05;;;;;;;11.88;5.30;;;;;;;17.52;73.15;99230.41;1353280;86;21076;-72
2022/07/08 06:01:06;;;;;;;9.50;5.35;;;;;;;17.57;73.10;99235.89;1350941;86;21776;-72
2022/07/08 06:03:07;;;;;;;9.95;5.20;;;;;;;17.61;73.15;99236.03;1352950;86;21082;-72
2022/07/08 06:05:08;;;;;;;11.50;6.03;;;;;;;17.68;73.17;99233.28;1327090;88;22600;-73
2022/07/08 06:07:09;;;;;;;14.30;5.15;;;;;;;17.76;73.19;99237.56;1352344;86;21573;-72
2022/07/08 06:09:11;;;;;;;11.35;4.70;;;;;;;17.85;73.02;99235.56;1353470;86;94301;-72
2022/07/08 06:11:12;;;;;;;15.00;4.90;;;;;;;17.94;72.92;99239.87;1342988;87;21042;-72
2022/07/08 06:13:13;;;;;;;13.43;4.92;;;;;;;17.99;72.80;99244.39;1344886;86;21608;-73
2022/07/08 06:15:15;;;;;;;6.25;4.50;;;;;;;18.00;72.64;99242.09;1354589;86;21008;-72
2022/07/08 06:17:15;;;;;;;11.20;4.33;;;;;;;18.02;72.69;99246.33;1354320;85;22756;-73
2022/07/08 06:19:17;;;;;;;9.33;4.80;;;;;;;18.08;72.54;99249.02;1365131;84;23742;-72
2022/07/08 06:21:18;;;;;;;8.38;4.70;;;;;;;18.12;72.51;99251.81;1364895;85;21095;-72
2022/07/08 06:23:19;;;;;;;13.35;5.35;;;;;;;18.15;72.55;99246.27;1354091;86;21079;-72
2022/07/08 06:25:20;;;;;;;12.37;5.15;;;;;;;18.20;72.46;99251.25;1353676;86;21092;-72
2022/07/08 06:27:21;;;;;;;11.65;4.78;;;;;;;18.29;72.56;99249.69;1365258;85;21039;-73
2022/07/08 06:29:22;;;;;;;16.82;4.42;;;;;;;18.39;72.55;99245.38;1353055;86;55408;-73
2022/07/08 06:31:23;;;;;;;13.78;3.95;;;;;;;18.44;72.26;99255.22;1353368;86;21040;-73
2022/07/08 06:33:24;;;;;;;12.55;4.47;;;;;;;18.53;72.21;99247.82;1355787;86;21005;-73
2022/07/08 06:35:25;;;;;;;9.73;4.70;;;;;;;18.70;72.34;99253.68;1354867;85;21059;-73
2022/07/08 06:37:25;;;;;;;;;;;;;;;18.82;72.15;99256.73;1355916;86;21053;-73
2022/07/08 06:39:26;;;;;;;6.12;4.53;;;;;;;18.88;71.93;99256.30;1353745;86;20141;-72
2022/07/08 06:41:27;;;;;;;;;;;;;;;18.94;71.92;99255.43;1356401;86;22299;-72
2022/07/08 06:43:28;;;;;;;20.15;3.98;;;;;;;19.01;71.84;99253.97;1354381;86;26239;-72
2022/07/08 06:45:35;;;;;;;;;;;;;;;19.12;71.78;99262.02;1368421;84;28280;-73
2022/07/08 06:47:36;;;;;;;10.50;4.25;;;;;;;19.20;71.11;99255.58;1353960;86;21819;-72
2022/07/08 06:49:37;;;;;;;16.17;4.55;;;;;;;19.28;71.17;99258.95;1356190;86;21052;-72
2022/07/08 06:51:38;;;;;;;16.75;4.92;;;;;;;19.38;71.26;99265.28;1353253;86;21787;-72
2022/07/08 06:55:58;;;;;;;22.15;5.50;;;;;;;19.51;71.04;99270.48;1352836;86;21029;-72
2022/07/08 06:57:59;;;;;;;23.73;4.30;;;;;;;19.55;70.90;99264.41;1366469;85;21145;-73
2022/07/08 07:00:01;;;;;;;4.62;3.72;;;;;;;19.57;70.86;99271.30;1364101;85;21083;-73
2022/07/08 07:02:03;;;;;;;10.63;3.60;;;;;;;19.63;70.64;99269.95;1367830;85;21735;-73
2022/07/08 07:04:04;;;;;;;14.40;4.15;;;;;;;19.65;70.47;99267.18;1367843;85;21634;-73
2022/07/08 07:06:05;;;;;;;13.05;4.45;;;;;;;19.69;70.53;99269.97;1352663;86;21051;-73
2022/07/08 07:08:07;;;;;;;7.05;3.52;;;;;;;19.75;70.47;99268.11;1352376;84;22326;-72
2022/07/08 07:10:08;;;;;;;15.98;4.20;;;;;;;19.82;70.56;99272.52;1332377;88;21047;-72
2022/07/08 07:12:09;;;;;;;21.10;3.95;;;;;;;19.86;70.53;99274.80;1351760;86;21869;-72
2022/07/08 07:14:10;;;;;;;14.87;4.08;;;;;;;19.89;70.18;99275.04;1351511;86;21015;-72
2022/07/08 07:16:11;;;;;;;4.83;2.80;;;;;;;19.93;70.25;99271.13;1350723;86;21592;-73
2022/07/08 07:18:12;;;;;;;4.58;2.80;;;;;;;19.96;69.94;99275.39;1367485;85;21038;-72
2022/07/08 07:20:14;;;;;;;15.35;4.12;;;;;;;20.01;69.85;99275.87;1365737;85;21042;-73
2022/07/08 07:22:16;;;;;;;23.70;3.42;;;;;;;20.06;69.91;99278.98;1368816;85;31729;-72
2022/07/08 07:24:17;;;;;;;35.52;4.70;;;;;;;20.07;69.70;99278.02;1369006;85;21375;-72
2022/07/08 07:26:18;;;;;;;4.58;3.00;;;;;;;20.10;69.44;99280.93;1370551;84;21067;-72
2022/07/08 07:28:19;;;;;;;3.62;2.60;;;;;;;20.11;69.25;99274.11;1350473;86;73008;-72
2022/07/08 07:30:22;;;;;;;4.72;2.55;;;;;;;20.12;69.05;99276.28;1352747;86;20980;-73
2022/07/08 07:32:23;;;;;;;10.88;3.02;;;;;;;20.08;68.97;99278.39;1351838;86;22190;-73
2022/07/08 07:34:24;;;;;;;3.20;2.90;;;;;;;20.10;68.98;99276.42;1350388;86;21067;-72
2022/07/08 07:36:26;;;;;;;12.13;3.40;;;;;;;20.05;69.07;99261.25;1350200;86;21034;-73
2022/07/08 07:38:26;;;;;;;7.08;3.00;;;;;;;20.19;68.84;99278.34;1350376;86;33973;-72
2022/07/08 07:40:28;;;;;;;6.53;3.15;;;;;;;20.22;68.83;99283.92;1351650;86;20968;-72
2022/07/08 07:42:29;;;;;;;6.28;3.10;;;;;;;20.25;68.92;99283.16;1352380;84;25562;-72
2022/07/08 07:44:30;;;;;;;19.57;3.02;;;;;;;20.30;68.74;99286.81;1350098;86;21039;-72
2022/07/08 07:46:31;;;;;;;7.60;3.25;;;;;;;20.34;68.73;99284.70;1351169;86;22806;-72
2022/07/08 07:48:33;;;;;;;9.05;3.20;;;;;;;20.33;68.61;99287.88;1350027;86;29458;-72
2022/07/08 07:50:34;;;;;;;6.90;3.40;;;;;;;20.37;68.55;99287.98;1350910;84;30344;-72
2022/07/08 07:52:35;;;;;;;5.53;2.90;;;;;;;20.40;68.50;99285.55;1349043;86;21566;-72
2022/07/08 07:54:36;;;;;;;5.83;3.40;;;;;;;20.47;68.44;99291.23;1351019;86;20999;-72
2022/07/08 07:56:36;;;;;;;10.43;3.02;;;;;;;20.52;68.33;99293.02;1351100;84;34990;-73
2022/07/08 07:58:38;;;;;;;9.65;3.35;;;;;;;20.57;68.36;99294.82;1348263;85;21586;-72
2022/07/08 08:00:39;;;;;;;4.25;3.15;;;;;;;20.58;68.22;99295.19;1349701;86;48383;-72
2022/07/08 08:02:39;;;;;;;4.55;2.50;;;;;;;20.58;68.01;99294.69;1349481;86;22354;-73
2022/07/08 08:04:41;;;;;;;27.77;3.00;;;;;;;20.63;67.80;99292.11;1349575;85;33511;-73
2022/07/08 08:06:42;;;;;;;19.98;2.67;;;;;;;20.65;67.38;99294.18;1350329;86;21100;-73
2022/07/08 08:08:44;;;;;;;13.48;2.20;;;;;;;20.71;67.20;99296.36;1351342;86;21020;-73
2022/07/08 08:10:45;;;;;;;9.43;2.02;;;;;;;20.78;66.97;99298.02;1349489;86;21120;-72
2022/07/08 08:12:46;;;;;;;5.42;2.12;;;;;;;20.88;66.77;99301.63;1356426;85;21108;-73
2022/07/08 08:14:47;;;;;;;21.07;2.90;;;;;;;20.92;66.47;99305.23;1353220;86;21033;-72
2022/07/08 08:16:48;;;;;;;5.03;2.45;;;;;;;20.99;66.66;99302.02;1353945;86;21061;-72
2022/07/08 08:18:48;;;;;;;12.30;2.62;;;;;;;21.10;66.71;99303.30;1353177;85;21043;-72
2022/07/08 08:20:49;;;;;;;11.83;2.20;;;;;;;21.18;66.21;99305.30;1354578;86;21512;-73
2022/07/08 08:22:52;;;;;;;9.30;2.00;;;;;;;21.20;66.28;99302.84;1351833;86;21072;-73
2022/07/08 08:24:52;;;;;;;11.70;2.08;;;;;;;21.22;66.29;99291.48;1352715;86;21628;-73
2022/07/08 08:26:53;;;;;;;22.13;2.72;;;;;;;21.30;66.11;99291.32;1354687;85;23263;-72
2022/07/08 08:28:54;;;;;;;8.75;2.52;;;;;;;21.31;65.74;99290.31;1353237;86;21659;-73
2022/07/08 08:30:55;;;;;;;54.70;2.80;;;;;;;21.30;65.37;99290.81;1353905;85;20978;-73
2022/07/08 08:32:57;;;;;;;12.65;2.50;;;;;;;21.35;65.31;99293.08;1352688;86;21109;-73
2022/07/08 08:34:58;;;;;;;15.10;2.62;;;;;;;21.36;65.34;99290.77;1352925;86;21091;-73
2022/07/08 08:36:59;;;;;;;16.77;2.85;;;;;;;21.39;65.11;99291.35;1349177;86;29884;-73
2022/07/08 08:39:00;;;;;;;13.40;2.10;;;;;;;21.37;65.09;99284.42;1351757;86;21080;-73
2022/07/08 08:41:01;;;;;;;6.53;2.40;;;;;;;21.36;65.21;99292.10;1352766;86;21743;-73
2022/07/08 08:43:02;;;;;;;19.02;2.37;;;;;;;21.39;65.15;99297.19;1351842;86;21009;-73
2022/07/08 08:45:04;;;;;;;6.92;2.00;;;;;;;21.41;65.13;99284.00;1353444;86;22064;-72
2022/07/08 08:47:07;;;;;;;6.80;2.00;;;;;;;21.55;65.19;99290.86;1351965;85;32247;-72
2022/07/08 08:49:10;;;;;;;14.58;2.25;;;;;;;21.67;64.81;99289.39;1352793;86;21640;-72
2022/07/08 08:51:13;;;;;;;4.28;2.45;;;;;;;21.69;64.87;99284.76;1350729;86;91696;-72
2022/07/08 08:53:17;;;;;;;16.95;3.05;;;;;;;21.70;64.46;99291.83;1351038;86;21094;-72
2022/07/08 08:55:21;;;;;;;3.40;2.35;;;;;;;21.69;64.69;99285.59;1350871;86;21037;-72
2022/07/08 08:57:22;;;;;;;17.37;2.98;;;;;;;21.69;64.55;99285.59;1349350;86;41637;-72
2022/07/08 08:59:24;;;;;;;13.72;2.95;;;;;;;21.81;64.73;99278.77;1352662;86;23747;-72
2022/07/08 09:01:28;;;;;;;2.42;2.22;;;;;;;21.94;64.60;99284.25;1350523;86;21033;-72
2022/07/08 09:03:28;;;;;;;14.50;2.47;;;;;;;22.04;64.29;99286.94;1352246;86;21075;-72
2022/07/08 09:05:30;;;;;;;6.35;2.00;;;;;;;22.17;64.57;99279.95;1351688;86;44410;-72
2022/07/08 09:07:31;;;;;;;8.00;2.50;;;;;;;22.43;64.53;99283.41;1351348;86;29358;-72
2022/07/08 09:09:33;;;;;;;3.70;2.42;;;;;;;22.64;64.14;99278.38;1352183;86;21009;-73
2022/07/08 09:11:34;;;;;;;7.45;2.50;;;;;;;22.72;63.83;99276.68;1351630;86;22082;-72
2022/07/08 09:13:35;;;;;;;6.12;2.20;;;;;;;22.62;63.39;99274.49;1352928;86;21056;-72
2022/07/08 09:15:42;;;;;;;9.73;2.05;;;;;;;22.51;63.35;99284.05;1354471;86;21085;-71
2022/07/08 09:17:43;;;;;;;10.40;2.30;;;;;;;22.39;63.45;99288.24;1351107;86;22397;-72
2022/07/08 09:19:50;;;;;;;12.78;2.58;;;;;;;22.28;63.44;99282.98;1351491;86;21023;-72
2022/07/08 09:21:52;;;;;;;11.93;2.70;;;;;;;22.21;63.58;99281.83;1353503;86;21093;-72
2022/07/08 09:23:53;;;;;;;12.82;3.02;;;;;;;22.11;63.59;99284.52;1350359;86;21033;-72
2022/07/08 09:25:57;;;;;;;22.10;3.45;;;;;;;21.99;63.53;99283.82;1352581;86;21025;-72
2022/07/08 09:27:58;;;;;;;15.43;3.45;;;;;;;21.80;63.43;99277.09;1349806;86;39932;-72
2022/07/08 09:30:00;;;;;;;8.98;2.20;;;;;;;21.70;63.76;99290.48;1352148;86;21013;-71
2022/07/08 09:32:13;;;;;;;9.38;2.40;;;;;;;21.40;63.58;99249.28;1351429;86;21189;-71
2022/07/08 09:34:16;;;;;;;11.63;3.05;;;;;;;21.53;63.45;99287.48;1353736;85;21036;-71
2022/07/08 09:36:17;;;;;;;7.47;2.47;;;;;;;21.60;63.97;99293.98;1350178;86;21072;-71
2022/07/08 09:38:19;;;;;;;3.15;1.87;;;;;;;21.85;63.98;99286.42;1351871;86;21021;-71
2022/07/08 09:40:20;;;;;;;10.78;2.50;;;;;;;21.93;63.41;99282.55;1351038;86;21080;-72
2022/07/08 09:42:21;;;;;;;7.40;2.37;;;;;;;21.97;63.13;99281.75;1351620;86;21635;-71
2022/07/08 09:44:23;;;;;;;7.45;2.40;;;;;;;21.96;62.96;99281.42;1354134;85;21166;-72